createdAt,value
2017-11-20T00:00:58.958Z,4.05
2017-11-20T00:03:26.487Z,3.53
2017-11-20T00:05:53.979Z,3.65
2017-11-20T00:08:21.491Z,3.80
2017-11-20T00:10:48.991Z,3.00
2017-11-20T00:13:16.491Z,2.90
2017-11-20T00:15:44.007Z,3.42
2017-11-20T00:18:11.506Z,3.05
2017-11-20T00:20:39.783Z,2.75
2017-11-20T00:23:07.288Z,3.65
2017-11-20T00:25:34.800Z,3.40
2017-11-20T00:28:03.066Z,2.85
2017-11-20T00:30:30.582Z,3.50
2017-11-20T00:32:58.077Z,3.10
2017-11-20T00:35:25.595Z,2.53
2017-11-20T00:37:53.089Z,3.10
2017-11-20T00:40:21.569Z,3.85
2017-11-20T00:42:49.086Z,2.92
2017-11-20T00:45:16.581Z,2.92
2017-11-20T00:47:44.095Z,3.35
2017-11-20T00:50:11.602Z,3.40
2017-11-20T00:52:39.118Z,3.10
2017-11-20T00:55:06.610Z,2.85
2017-11-20T00:57:34.116Z,3.22
2017-11-20T01:00:01.671Z,3.62
2017-11-20T01:02:29.929Z,3.45
2017-11-20T01:04:57.441Z,3.53
2017-11-20T01:07:24.934Z,3.62
2017-11-20T01:09:55.901Z,3.12
2017-11-20T01:12:24.175Z,3.83
2017-11-20T01:14:52.443Z,4.30
2017-11-20T01:17:19.958Z,4.90
2017-11-20T01:19:49.400Z,4.10
2017-11-20T01:22:16.922Z,3.90
2017-11-20T01:24:44.417Z,3.60
2017-11-20T01:27:11.935Z,3.92
2017-11-20T01:29:41.370Z,3.80
2017-11-20T01:32:08.863Z,4.90
2017-11-20T01:34:37.142Z,4.45
2017-11-20T01:37:05.407Z,4.50
2017-11-20T01:39:37.274Z,4.25
2017-11-20T01:42:05.538Z,4.05
2017-11-20T01:44:33.054Z,4.10
2017-11-20T01:47:00.552Z,4.40
2017-11-20T01:49:29.050Z,4.22
2017-11-20T01:51:56.539Z,4.25
2017-11-20T01:54:24.030Z,5.10
2017-11-20T01:56:51.559Z,4.00
2017-11-20T01:59:19.063Z,4.55
2017-11-20T02:01:46.584Z,4.47
2017-11-20T02:04:14.084Z,4.68
2017-11-20T02:06:41.610Z,4.20
2017-11-20T02:09:09.105Z,4.20
2017-11-20T02:11:36.606Z,3.87
2017-11-20T02:14:04.120Z,4.45
2017-11-20T02:16:31.612Z,3.58
2017-11-20T02:18:59.905Z,3.80
2017-11-20T02:21:27.400Z,3.75
2017-11-20T02:23:54.914Z,3.62
2017-11-20T02:26:23.185Z,4.50
2017-11-20T02:28:51.452Z,3.25
2017-11-20T02:31:18.978Z,3.97
2017-11-20T02:33:46.469Z,4.22
2017-11-20T02:36:13.983Z,4.00
2017-11-20T02:38:41.475Z,4.15
2017-11-20T02:41:12.947Z,3.72
2017-11-20T02:43:41.236Z,3.65
2017-11-20T02:46:09.502Z,3.12
2017-11-20T02:48:37.780Z,3.42
2017-11-20T02:51:06.042Z,3.28
2017-11-20T02:53:33.566Z,3.47
2017-11-20T02:56:01.055Z,3.00
2017-11-20T02:58:28.573Z,3.15
2017-11-20T03:00:56.066Z,3.60
2017-11-20T03:03:23.582Z,3.50
2017-11-20T03:05:51.065Z,3.70
2017-11-20T03:08:18.565Z,4.05
2017-11-20T03:10:50.329Z,2.85
2017-11-20T03:13:17.827Z,3.15
2017-11-20T03:15:45.342Z,3.40
2017-11-20T03:18:12.847Z,3.28
2017-11-20T03:20:40.367Z,3.47
2017-11-20T03:23:07.867Z,3.80
2017-11-20T03:25:35.377Z,3.80
2017-11-20T03:28:02.866Z,3.00
2017-11-20T03:30:30.400Z,3.45
2017-11-20T03:32:58.682Z,3.50
2017-11-20T03:35:26.178Z,3.50
2017-11-20T03:37:53.689Z,3.30
2017-11-20T03:40:21.188Z,3.42
2017-11-20T03:42:48.708Z,2.72
2017-11-20T03:45:16.208Z,3.28
2017-11-20T03:47:43.721Z,3.40
2017-11-20T03:50:11.227Z,3.17
2017-11-20T03:52:39.664Z,3.17
2017-11-20T03:55:07.192Z,3.37
2017-11-20T03:57:34.682Z,2.95
2017-11-20T04:00:02.207Z,2.67
2017-11-20T04:02:30.477Z,3.78
2017-11-20T04:04:57.999Z,3.15
2017-11-20T04:07:26.259Z,3.40
2017-11-20T04:09:53.754Z,3.47
2017-11-20T04:12:21.266Z,3.20
2017-11-20T04:14:48.765Z,3.60
2017-11-20T04:17:16.288Z,3.40
2017-11-20T04:19:43.796Z,3.55
2017-11-20T04:22:12.241Z,3.20
2017-11-20T04:24:39.733Z,3.25
2017-11-20T04:27:07.241Z,3.47
2017-11-20T04:29:34.757Z,4.10
2017-11-20T04:32:02.250Z,3.87
2017-11-20T04:34:29.779Z,3.83
2017-11-20T04:36:57.278Z,4.22
2017-11-20T04:39:24.813Z,4.30
2017-11-20T04:41:52.362Z,4.28
2017-11-20T04:44:19.852Z,4.57
2017-11-20T04:46:47.360Z,4.00
2017-11-20T04:49:15.793Z,3.87
2017-11-20T04:51:43.300Z,4.45
2017-11-20T04:54:11.548Z,4.62
2017-11-20T04:56:39.053Z,4.30
2017-11-20T04:59:06.556Z,4.95
2017-11-20T05:01:34.036Z,4.03
2017-11-20T05:04:01.541Z,4.90
2017-11-20T05:06:29.025Z,3.90
2017-11-20T05:08:56.537Z,4.85
2017-11-20T05:11:24.021Z,4.37
2017-11-20T05:13:51.540Z,4.75
2017-11-20T05:16:19.788Z,4.85
2017-11-20T05:18:47.316Z,4.00
2017-11-20T05:21:14.819Z,5.28
2017-11-20T05:23:42.310Z,4.80
2017-11-20T05:26:09.826Z,5.40
2017-11-20T05:28:37.317Z,5.40
2017-11-20T05:31:05.622Z,5.40
2017-11-20T05:33:33.130Z,5.50
2017-11-20T05:36:00.644Z,4.65
2017-11-20T05:38:28.165Z,5.70
2017-11-20T05:40:56.445Z,6.15
2017-11-20T05:43:24.694Z,4.72
2017-11-20T05:45:52.197Z,5.05
2017-11-20T05:48:20.473Z,5.20
2017-11-20T05:50:47.997Z,5.60
2017-11-20T05:53:15.515Z,4.93
2017-11-20T05:55:43.222Z,5.78
2017-11-20T05:58:10.734Z,5.12
2017-11-20T06:00:38.229Z,6.00
2017-11-20T06:03:05.722Z,5.82
2017-11-20T06:05:33.998Z,6.12
2017-11-20T06:08:02.262Z,5.25
2017-11-20T06:10:29.785Z,5.30
2017-11-20T06:12:57.274Z,6.45
2017-11-20T06:15:24.789Z,6.47
2017-11-20T06:17:52.279Z,5.50
2017-11-20T06:20:22.817Z,4.85
2017-11-20T06:22:50.323Z,5.25
2017-11-20T06:25:17.810Z,4.90
2017-11-20T06:27:45.324Z,5.90
2017-11-20T06:30:13.587Z,5.43
2017-11-20T06:32:41.109Z,5.12
2017-11-20T06:35:08.610Z,5.00
2017-11-20T06:37:36.888Z,5.32
2017-11-20T06:40:04.373Z,5.68
2017-11-20T06:42:31.879Z,4.55
2017-11-20T06:44:59.403Z,5.18
2017-11-20T06:47:26.893Z,4.80
2017-11-20T06:49:54.415Z,5.30
2017-11-20T06:52:21.910Z,6.03
2017-11-20T06:54:49.419Z,4.95
2017-11-20T06:57:17.688Z,5.78
2017-11-20T06:59:45.950Z,5.18
2017-11-20T07:02:13.467Z,5.50
2017-11-20T07:04:40.966Z,5.45
2017-11-20T07:07:08.490Z,5.50
2017-11-20T07:09:36.775Z,5.50
2017-11-20T07:12:04.339Z,5.00
2017-11-20T07:14:31.878Z,6.28
2017-11-20T07:16:59.383Z,7.87
2017-11-20T07:19:27.199Z,5.90
2017-11-20T07:21:54.753Z,5.70
2017-11-20T07:24:22.276Z,6.00
2017-11-20T07:27:00.345Z,5.82
2017-11-20T07:32:33.669Z,5.90
2017-11-20T07:35:01.187Z,5.70
2017-11-20T07:37:40.615Z,6.80
2017-11-20T07:40:17.757Z,6.05
2017-11-20T07:42:45.257Z,5.60
2017-11-20T07:45:13.526Z,5.75
2017-11-20T07:47:41.811Z,5.20
2017-11-20T07:50:10.070Z,4.90
2017-11-20T07:52:37.586Z,5.57
2017-11-20T07:55:05.083Z,4.62
2017-11-20T07:57:36.577Z,5.05
2017-11-20T08:00:06.159Z,6.15
2017-11-20T08:02:34.458Z,6.25
2017-11-20T08:05:01.968Z,5.60
2017-11-20T08:07:32.382Z,5.32
2017-11-20T08:10:01.241Z,5.30
2017-11-20T08:12:28.846Z,5.50
2017-11-20T08:14:56.384Z,5.35
2017-11-20T08:17:23.882Z,6.47
2017-11-20T08:19:51.386Z,5.93
2017-11-20T08:22:18.902Z,5.47
2017-11-20T08:24:46.389Z,4.95
2017-11-20T08:27:13.910Z,5.43
2017-11-20T08:29:41.408Z,5.15
2017-11-20T08:32:08.938Z,5.03
2017-11-20T08:34:36.446Z,5.60
2017-11-20T08:37:03.974Z,5.28
2017-11-20T08:39:34.133Z,5.18
2017-11-20T08:41:59.729Z,5.00
2017-11-20T08:44:27.247Z,5.37
2017-11-20T08:46:54.745Z,4.50
2017-11-20T08:49:22.284Z,5.80
2017-11-20T08:51:50.545Z,6.28
2017-11-20T08:54:18.065Z,5.82
2017-11-20T08:56:45.655Z,5.60
2017-11-20T08:59:13.149Z,5.30
2017-11-20T09:01:41.431Z,5.32
2017-11-20T09:04:09.688Z,4.50
2017-11-20T09:06:37.209Z,5.25
2017-11-20T09:09:04.715Z,5.62
2017-11-20T09:11:32.212Z,5.43
2017-11-20T09:13:59.733Z,5.20
2017-11-20T09:16:27.234Z,5.68
2017-11-20T09:18:54.751Z,5.47
2017-11-20T09:21:23.012Z,5.30
2017-11-20T09:23:50.506Z,5.53
2017-11-20T09:26:18.027Z,5.05
2017-11-20T09:28:45.541Z,5.30
2017-11-20T09:31:13.062Z,5.28
2017-11-20T09:33:40.582Z,5.30
2017-11-20T09:36:08.089Z,5.00
2017-11-20T09:38:36.370Z,5.93
2017-11-20T09:41:04.638Z,4.87
2017-11-20T09:43:32.155Z,5.07
2017-11-20T09:45:59.647Z,5.03
2017-11-20T09:48:27.171Z,5.00
2017-11-20T09:50:54.687Z,5.57
2017-11-20T09:53:22.951Z,5.00
2017-11-20T09:55:50.470Z,5.37
2017-11-20T09:58:17.969Z,5.00
2017-11-20T10:00:49.125Z,5.45
2017-11-20T10:03:17.392Z,4.72
2017-11-20T10:05:44.925Z,5.40
2017-11-20T10:08:12.433Z,4.00
2017-11-20T10:10:39.928Z,4.30
2017-11-20T10:13:07.442Z,4.45
2017-11-20T10:15:35.693Z,4.45
2017-11-20T10:18:03.246Z,4.65
2017-11-20T10:20:30.742Z,5.15
2017-11-20T10:22:59.022Z,4.30
2017-11-20T10:25:27.278Z,5.53
2017-11-20T10:27:54.790Z,4.47
2017-11-20T10:30:22.306Z,5.65
2017-11-20T10:32:50.574Z,6.47
2017-11-20T10:35:18.087Z,5.30
2017-11-20T10:37:45.574Z,5.93
2017-11-20T10:40:13.101Z,5.40
2017-11-20T10:42:40.607Z,6.18
2017-11-20T10:45:08.127Z,5.30
2017-11-20T10:47:35.635Z,5.53
2017-11-20T10:50:03.153Z,5.10
2017-11-20T10:52:30.675Z,5.55
2017-11-20T10:54:58.952Z,5.05
2017-11-20T10:57:27.248Z,5.82
2017-11-20T10:59:54.746Z,5.40
2017-11-20T11:02:22.265Z,5.25
2017-11-20T11:04:49.770Z,4.78
2017-11-20T11:07:17.302Z,5.30
2017-11-20T11:09:44.809Z,5.20
2017-11-20T11:12:13.078Z,5.37
2017-11-20T11:14:40.596Z,5.72
2017-11-20T11:17:08.112Z,5.28
2017-11-20T11:19:36.414Z,5.60
2017-11-20T11:22:03.983Z,5.43
2017-11-20T11:24:31.494Z,4.93
2017-11-20T11:26:58.995Z,4.93
2017-11-20T11:29:26.517Z,4.87
2017-11-20T11:31:54.794Z,4.70
2017-11-20T11:34:22.286Z,6.05
2017-11-20T11:36:49.807Z,5.40
2017-11-20T11:39:18.174Z,5.40
2017-11-20T11:41:44.827Z,5.37
2017-11-20T11:44:12.320Z,5.20
2017-11-20T11:46:39.852Z,5.45
2017-11-20T11:49:07.386Z,5.18
2017-11-20T11:51:34.897Z,4.90
2017-11-20T11:54:03.157Z,5.10
2017-11-20T11:56:31.443Z,5.57
2017-11-20T11:58:59.735Z,4.97
2017-11-20T12:01:27.235Z,5.00
2017-11-20T12:03:54.764Z,4.82
2017-11-20T12:06:22.258Z,4.50
2017-11-20T12:08:49.774Z,5.15
2017-11-20T12:11:17.272Z,5.10
2017-11-20T12:13:44.762Z,5.40
2017-11-20T12:16:12.291Z,5.03
2017-11-20T12:18:39.791Z,5.03
2017-11-20T12:21:08.073Z,5.05
2017-11-20T12:23:36.339Z,5.07
2017-11-20T12:26:03.853Z,5.12
2017-11-20T12:28:31.347Z,5.10
2017-11-20T12:30:58.842Z,5.12
2017-11-20T12:33:26.369Z,5.12
2017-11-20T12:35:53.877Z,4.93
2017-11-20T12:38:21.375Z,5.87
2017-11-20T12:40:48.866Z,5.47
2017-11-20T12:43:17.163Z,4.87
2017-11-20T12:45:44.651Z,6.10
2017-11-20T12:48:12.174Z,5.57
2017-11-20T12:50:39.666Z,5.37
2017-11-20T12:53:07.175Z,5.30
2017-11-20T12:55:35.443Z,5.87
2017-11-20T12:58:03.717Z,6.03
2017-11-20T13:00:31.224Z,5.28
2017-11-20T13:02:58.723Z,6.05
2017-11-20T13:05:26.244Z,5.30
2017-11-20T13:07:53.757Z,5.32
2017-11-20T13:10:21.279Z,5.60
2017-11-20T13:12:48.769Z,5.45
2017-11-20T13:15:16.264Z,5.62
2017-11-20T13:17:43.785Z,4.85
2017-11-20T13:20:11.273Z,6.55
2017-11-20T13:22:39.551Z,5.68
2017-11-20T13:25:07.077Z,5.47
2017-11-20T13:27:34.594Z,6.12
2017-11-20T13:30:02.112Z,5.20
2017-11-20T13:32:29.606Z,5.45
2017-11-20T13:34:57.152Z,5.25
2017-11-20T13:37:24.647Z,5.87
2017-11-20T13:39:52.205Z,5.50
2017-11-20T13:42:19.699Z,5.20
2017-11-20T13:44:47.204Z,5.65
2017-11-20T13:47:14.716Z,5.62
2017-11-20T13:49:42.218Z,5.55
2017-11-20T13:52:09.739Z,5.40
2017-11-20T13:54:37.247Z,5.53
2017-11-20T13:57:04.764Z,4.68
2017-11-20T13:59:32.267Z,5.65
2017-11-20T14:01:59.754Z,5.68
2017-11-20T14:04:27.270Z,4.97
2017-11-20T14:06:54.770Z,5.68
2017-11-20T14:09:22.290Z,4.90
2017-11-20T14:11:49.867Z,4.57
2017-11-20T14:14:17.381Z,5.47
2017-11-20T14:16:45.646Z,4.90
2017-11-20T14:19:13.142Z,4.47
2017-11-20T14:21:40.653Z,4.60
2017-11-20T14:24:08.181Z,3.70
2017-11-20T14:26:35.698Z,4.55
2017-11-20T14:29:03.193Z,4.07
2017-11-20T14:31:30.707Z,4.22
2017-11-20T14:33:58.229Z,3.85
2017-11-20T14:36:25.722Z,3.80
2017-11-20T14:38:53.241Z,3.30
2017-11-20T14:41:20.743Z,3.97
2017-11-20T14:43:48.291Z,4.35
2017-11-20T14:46:15.805Z,4.12
2017-11-20T14:48:43.313Z,4.55
2017-11-20T14:54:14.330Z,4.00
2017-11-20T14:56:41.834Z,3.87
2017-11-20T14:59:09.344Z,4.50
2017-11-20T15:01:44.434Z,4.60
2017-11-20T15:04:11.933Z,3.75
2017-11-20T15:06:40.217Z,3.97
2017-11-20T15:09:07.726Z,4.12
2017-11-20T15:11:35.242Z,4.00
2017-11-20T15:14:02.749Z,4.57
2017-11-20T15:16:30.277Z,4.80
2017-11-20T15:18:57.769Z,4.53
2017-11-20T15:21:25.270Z,4.95
2017-11-20T15:23:52.784Z,4.45
2017-11-20T15:26:20.285Z,4.40
2017-11-20T15:28:47.802Z,4.22
2017-11-20T15:31:15.305Z,4.03
2017-11-20T15:33:42.822Z,4.68
2017-11-20T15:36:10.890Z,4.62
2017-11-20T15:38:38.392Z,4.80
2017-11-20T15:41:05.930Z,4.85
2017-11-20T15:43:33.423Z,4.10
2017-11-20T15:46:00.970Z,5.18
2017-11-20T15:48:28.467Z,5.00
2017-11-20T15:50:56.319Z,4.35
2017-11-20T15:53:23.827Z,4.28
2017-11-20T15:55:51.326Z,5.60
2017-11-20T15:58:18.946Z,4.00
2017-11-20T16:00:46.438Z,4.30
2017-11-20T16:03:14.736Z,4.95
2017-11-20T16:05:42.233Z,4.35
2017-11-20T16:08:09.758Z,4.68
2017-11-20T16:10:37.258Z,4.87
2017-11-20T16:13:04.750Z,4.93
2017-11-20T16:15:33.033Z,4.65
2017-11-20T16:18:00.549Z,5.05
2017-11-20T16:20:28.069Z,5.32
2017-11-20T16:22:55.565Z,5.05
2017-11-20T16:25:23.089Z,5.95
2017-11-20T16:27:50.606Z,4.95
2017-11-20T16:30:18.119Z,5.75
2017-11-20T16:32:45.616Z,5.30
2017-11-20T16:35:13.111Z,5.20
2017-11-20T16:37:40.629Z,6.15
2017-11-20T16:40:08.133Z,5.47
2017-11-20T16:42:35.654Z,5.85
2017-11-20T16:45:03.177Z,5.53
2017-11-20T16:47:30.712Z,5.62
2017-11-20T16:50:04.514Z,5.57
2017-11-20T16:52:32.036Z,6.20
2017-11-20T16:54:59.534Z,7.05
2017-11-20T16:57:38.807Z,6.68
2017-11-20T17:00:20.274Z,6.50
2017-11-20T17:03:11.602Z,6.78
2017-11-20T17:05:39.117Z,6.60
2017-11-20T17:08:07.413Z,6.28
2017-11-20T17:10:34.976Z,7.00
2017-11-20T17:13:02.469Z,6.80
2017-11-20T17:15:30.005Z,6.32
2017-11-20T17:17:57.515Z,7.10
2017-11-20T17:20:26.287Z,6.87
2017-11-20T17:22:53.868Z,7.03
2017-11-20T17:25:22.785Z,6.97
2017-11-20T17:27:50.620Z,7.85
2017-11-20T17:30:18.226Z,7.10
2017-11-20T17:32:45.867Z,6.30
2017-11-20T17:35:13.564Z,7.05
2017-11-20T17:37:41.218Z,6.57
2017-11-20T17:40:08.867Z,6.90
2017-11-20T17:42:36.655Z,7.40
2017-11-20T17:45:04.401Z,7.57
2017-11-20T17:47:32.050Z,7.25
2017-11-20T17:50:01.481Z,6.90
2017-11-20T17:52:29.052Z,6.30
2017-11-20T17:54:56.724Z,8.10
2017-11-20T17:57:24.406Z,7.10
2017-11-20T17:59:52.147Z,7.40
2017-11-20T18:02:19.886Z,6.70
2017-11-20T18:04:48.577Z,7.25
2017-11-20T18:07:19.772Z,6.70
2017-11-20T18:09:48.070Z,7.65
2017-11-20T18:12:17.032Z,7.10
2017-11-20T18:14:45.391Z,6.72
2017-11-20T18:17:13.059Z,7.00
2017-11-20T18:19:41.113Z,6.03
2017-11-20T18:22:09.680Z,6.40
2017-11-20T18:24:41.434Z,6.87
2017-11-20T18:27:09.932Z,6.30
2017-11-20T18:29:37.566Z,6.00
2017-11-20T18:32:05.295Z,5.70
2017-11-20T18:34:33.125Z,5.62
2017-11-20T18:37:01.715Z,5.97
2017-11-20T18:39:29.389Z,5.70
2017-11-20T18:41:56.969Z,6.18
2017-11-20T18:44:24.584Z,5.70
2017-11-20T18:46:52.866Z,6.20
2017-11-20T18:49:20.430Z,5.47
2017-11-20T18:51:48.003Z,5.82
2017-11-20T18:54:15.558Z,6.65
2017-11-20T18:56:43.249Z,6.40
2017-11-20T18:59:10.788Z,6.25
2017-11-20T19:05:01.270Z,6.25
2017-11-20T19:07:49.050Z,5.43
2017-11-20T19:12:57.353Z,5.40
2017-11-20T19:15:24.975Z,6.30
2017-11-20T19:17:52.588Z,6.00
2017-11-20T19:23:04.761Z,5.50
2017-11-20T19:25:33.024Z,5.70
2017-11-20T19:28:01.853Z,6.20
2017-11-20T19:30:29.655Z,5.72
2017-11-20T19:32:57.216Z,6.15
2017-11-20T19:35:24.753Z,5.18
2017-11-20T19:37:53.039Z,5.82
2017-11-20T19:40:20.623Z,5.45
2017-11-20T19:42:48.166Z,6.35
2017-11-20T19:45:15.735Z,5.85
2017-11-20T19:47:43.289Z,4.90
2017-11-20T19:50:10.834Z,6.25
2017-11-20T19:52:39.219Z,6.15
2017-11-20T19:55:06.765Z,6.85
2017-11-20T19:57:34.397Z,5.68
2017-11-20T20:00:02.015Z,5.30
2017-11-20T20:02:29.584Z,6.05
2017-11-20T20:04:57.231Z,5.40
2017-11-20T20:07:24.775Z,6.70
2017-11-20T20:09:57.388Z,5.28
2017-11-20T20:12:24.942Z,6.20
2017-11-20T20:15:04.307Z,6.90
2017-11-20T20:17:32.006Z,6.32
2017-11-20T20:20:00.577Z,6.65
2017-11-20T20:22:28.132Z,5.78
2017-11-20T20:24:55.677Z,5.75
2017-11-20T20:27:23.212Z,5.10
2017-11-20T20:29:50.950Z,5.70
2017-11-20T20:32:19.261Z,6.07
2017-11-20T20:34:46.801Z,5.72
2017-11-20T20:37:14.345Z,5.57
2017-11-20T20:39:43.677Z,5.15
2017-11-20T20:42:11.214Z,5.10
2017-11-20T20:44:38.778Z,5.05
2017-11-20T20:47:06.355Z,5.60
2017-11-20T20:49:33.926Z,5.40
2017-11-20T20:52:01.505Z,4.87
2017-11-20T20:54:29.064Z,4.37
2017-11-20T20:56:56.613Z,5.12
2017-11-20T20:59:24.192Z,5.28
2017-11-20T21:01:51.942Z,5.18
2017-11-20T21:04:19.491Z,4.75
2017-11-20T21:06:52.782Z,4.45
2017-11-20T21:09:20.351Z,6.10
2017-11-20T21:11:53.477Z,5.85
2017-11-20T21:14:21.058Z,5.20
2017-11-20T21:16:49.366Z,4.30
2017-11-20T21:19:16.906Z,5.15
2017-11-20T21:21:45.280Z,4.35
2017-11-20T21:24:13.624Z,4.80
2017-11-20T21:26:41.202Z,5.05
2017-11-20T21:29:08.790Z,4.57
2017-11-20T21:31:37.337Z,4.65
2017-11-20T21:34:04.907Z,4.40
2017-11-20T21:36:32.518Z,5.32
2017-11-20T21:39:00.887Z,5.25
2017-11-20T21:41:28.436Z,8.60
2017-11-20T21:43:56.023Z,7.05
2017-11-20T21:46:23.591Z,5.55
2017-11-20T21:48:51.189Z,5.28
2017-11-20T21:51:18.743Z,9.98
2017-11-20T21:53:46.279Z,5.35
2017-11-20T21:56:13.854Z,12.27
2017-11-20T21:58:41.408Z,6.50
2017-11-20T22:01:09.130Z,4.62
2017-11-20T22:03:36.662Z,13.98
2017-11-20T22:06:04.214Z,4.72
2017-11-20T22:08:31.799Z,4.65
2017-11-20T22:11:00.117Z,5.37
2017-11-20T22:13:28.495Z,4.43
2017-11-20T22:15:56.031Z,4.10
2017-11-20T22:18:23.631Z,4.35
2017-11-20T22:20:51.179Z,5.18
2017-11-20T22:23:18.740Z,4.97
2017-11-20T22:25:47.038Z,4.40
2017-11-20T22:28:14.593Z,4.70
2017-11-20T22:30:42.148Z,4.60
2017-11-20T22:33:09.681Z,4.50
2017-11-20T22:35:37.227Z,4.80
2017-11-20T22:38:05.534Z,4.22
2017-11-20T22:40:33.102Z,4.25
2017-11-20T22:43:00.631Z,4.03
2017-11-20T22:45:28.183Z,3.55
2017-11-20T22:47:56.465Z,3.58
2017-11-20T22:50:23.980Z,3.97
2017-11-20T22:52:51.518Z,3.70
2017-11-20T22:55:19.055Z,4.30
2017-11-20T22:57:46.631Z,3.35
2017-11-20T23:00:14.149Z,3.50
2017-11-20T23:02:42.446Z,3.50
2017-11-20T23:05:10.747Z,2.97
2017-11-20T23:07:38.260Z,2.37
2017-11-20T23:10:05.797Z,2.40
2017-11-20T23:12:33.317Z,2.10
2017-11-20T23:15:00.846Z,2.50
2017-11-20T23:17:29.134Z,1.87
2017-11-20T23:19:57.413Z,1.98
2017-11-20T23:22:25.707Z,1.65
2017-11-20T23:24:53.226Z,2.03
2017-11-20T23:27:20.742Z,2.10
2017-11-20T23:29:48.237Z,1.40
2017-11-20T23:32:15.725Z,1.50
2017-11-20T23:34:44.013Z,1.40
2017-11-20T23:37:12.272Z,1.40
2017-11-20T23:39:39.797Z,1.50
2017-11-20T23:42:07.310Z,1.25
2017-11-20T23:44:34.827Z,1.10
2017-11-20T23:47:02.354Z,1.27
2017-11-20T23:49:29.849Z,1.10
2017-11-20T23:51:57.354Z,2.00
2017-11-20T23:54:36.605Z,1.10
2017-11-20T23:57:04.786Z,1.25
2017-11-20T23:59:32.279Z,1.10
